Weather at UNFICYP OP140 Heliport

Public forecast

Using degrees Celsius for public forecast. Weather courtesy of forecast.io.

Closest aviation weather report (METAR) to UNFICYP OP140 Heliport

Closest report is Larnaca International Airport, 18.3 nm (33.9 km) SW.

2024/02/24 15:30 (retrieved 30 minutes ago)

LCLK 241530Z 22007KT 9999 FEW025 FEW030TCU 18/12 Q1020 NOSIG

Closest aviation forecast (TAF) to UNFICYP OP140 Heliport

Closest forecast is Larnaca International Airport, 18.3 nm (33.9 km) SW.

2024/02/24 12:32 (retrieved 3 hours ago)

TAF LCLK 241130Z 2412/2512 04010KT 9999 FEW025 BECMG 2412/2414 16010KT BECMG 2415/2419 33008KT BECMG 2507/2511 18010KT